Time;durP1;ratioP1;P1;durP2;ratioP2;P2;SDS_P1;SDS_P2;PMS_P1;PMS_P2;Temp;Humidity;BMP_temperature;BMP_pressure;BME280_temperature;BME280_humidity;BME280_pressure;Samples;Min_cycle;Max_cycle;Signal;HPM_P1;HPM_P2
2021/12/03 00:01:50;;;;;;;1.55;0.50;;;;;;;;;;1851114;77;26269;-35
2021/12/03 00:04:17;;;;;;;0.60;0.60;;;;;;;;;;1844954;77;26732;-35
2021/12/03 00:06:45;;;;;;;0.60;0.60;;;;;;;;;;1840348;77;26315;-35
2021/12/03 00:09:12;;;;;;;0.60;0.60;;;;;;;;;;1845615;76;26276;-35
2021/12/03 00:11:40;;;;;;;0.68;0.68;;;;;;;;;;1842614;75;26346;-34
2021/12/03 00:14:07;;;;;;;0.40;0.40;;;;;;;;;;1860513;77;26322;-35
2021/12/03 00:16:35;;;;;;;0.53;0.50;;;;;;;;;;1857267;77;27206;-35
2021/12/03 00:19:02;;;;;;;1.55;0.60;;;;;;;;;;1842648;76;26252;-35
2021/12/03 00:21:29;;;;;;;0.55;0.55;;;;;;;;;;1840879;75;26350;-34
2021/12/03 00:23:57;;;;;;;0.50;0.50;;;;;;;;;;1842312;75;26241;-35
2021/12/03 00:26:25;;;;;;;0.60;0.60;;;;;;;;;;1843663;75;26360;-35
2021/12/03 00:28:52;;;;;;;0.60;0.60;;;;;;;;;;1855299;76;26792;-35
2021/12/03 00:31:19;;;;;;;0.60;0.60;;;;;;;;;;1847029;77;26328;-35
2021/12/03 00:33:47;;;;;;;0.57;0.57;;;;;;;;;;1844192;77;27691;-35
2021/12/03 00:36:14;;;;;;;0.60;0.60;;;;;;;;;;1833582;75;26288;-34
2021/12/03 00:38:44;;;;;;;0.55;0.55;;;;;;;;;;1842914;75;26260;-35
2021/12/03 00:41:14;;;;;;;0.50;0.50;;;;;;;;;;1837874;75;26283;-35
2021/12/03 00:43:47;;;;;;;1.07;0.60;;;;;;;;;;1844793;75;26285;-35
2021/12/03 00:46:17;;;;;;;0.50;0.50;;;;;;;;;;1840080;75;26292;-35
2021/12/03 00:48:46;;;;;;;0.50;0.50;;;;;;;;;;1850041;76;26755;-35
2021/12/03 00:51:13;;;;;;;0.62;0.62;;;;;;;;;;1844071;77;26280;-34
2021/12/03 00:53:41;;;;;;;0.50;0.50;;;;;;;;;;1861091;76;26696;-35
2021/12/03 00:56:10;;;;;;;0.50;0.50;;;;;;;;;;1855925;75;26323;-35
2021/12/03 00:58:37;;;;;;;0.60;0.60;;;;;;;;;;1855734;75;26240;-34
2021/12/03 01:01:06;;;;;;;0.50;0.50;;;;;;;;;;1852681;75;26252;-35
2021/12/03 01:03:34;;;;;;;0.50;0.50;;;;;;;;;;1848092;75;26325;-35
2021/12/03 01:06:02;;;;;;;0.50;0.50;;;;;;;;;;1848609;75;26807;-35
2021/12/03 01:08:31;;;;;;;0.50;0.50;;;;;;;;;;1842860;75;26254;-35
2021/12/03 01:10:59;;;;;;;0.60;0.60;;;;;;;;;;1848487;75;26287;-35
2021/12/03 01:13:26;;;;;;;0.50;0.50;;;;;;;;;;1836577;75;26338;-34
2021/12/03 01:15:53;;;;;;;0.60;0.60;;;;;;;;;;1848210;75;26281;-35
2021/12/03 01:18:21;;;;;;;0.40;0.40;;;;;;;;;;1833414;76;26272;-35
2021/12/03 01:20:48;;;;;;;1.17;0.68;;;;;;;;;;1842020;75;26729;-35
2021/12/03 01:23:16;;;;;;;0.50;0.50;;;;;;;;;;1838383;77;26331;-35
2021/12/03 01:25:43;;;;;;;0.50;0.50;;;;;;;;;;1850838;75;26740;-35
2021/12/03 01:28:12;;;;;;;0.50;0.50;;;;;;;;;;1848420;75;26357;-34
2021/12/03 01:30:39;;;;;;;0.60;0.60;;;;;;;;;;1851536;75;26308;-35
2021/12/03 01:33:07;;;;;;;0.40;0.40;;;;;;;;;;1846313;75;26277;-35
2021/12/03 01:35:36;;;;;;;0.57;0.57;;;;;;;;;;1841542;75;26363;-35
2021/12/03 01:38:04;;;;;;;0.40;0.40;;;;;;;;;;1833112;77;26256;-34
2021/12/03 01:40:34;;;;;;;0.50;0.50;;;;;;;;;;1830650;77;26272;-35
2021/12/03 01:43:01;;;;;;;0.50;0.50;;;;;;;;;;1837903;76;26278;-35
2021/12/03 01:45:30;;;;;;;0.57;0.57;;;;;;;;;;1824657;77;26358;-35
2021/12/03 01:47:58;;;;;;;0.50;0.50;;;;;;;;;;1842884;76;26250;-35
2021/12/03 01:50:29;;;;;;;0.40;0.40;;;;;;;;;;1834000;76;26309;-35
2021/12/03 01:52:57;;;;;;;0.40;0.40;;;;;;;;;;1838003;76;26564;-35
2021/12/03 01:55:24;;;;;;;0.50;0.50;;;;;;;;;;1823310;77;26273;-35
2021/12/03 01:57:52;;;;;;;0.50;0.50;;;;;;;;;;1832113;76;26777;-35
2021/12/03 02:00:20;;;;;;;0.50;0.50;;;;;;;;;;1828164;76;26225;-35
2021/12/03 02:02:48;;;;;;;0.33;0.33;;;;;;;;;;1827555;76;26250;-35
2021/12/03 02:05:15;;;;;;;0.50;0.50;;;;;;;;;;1837348;76;27399;-35
2021/12/03 02:07:44;;;;;;;0.42;0.42;;;;;;;;;;1835427;77;26270;-35
2021/12/03 02:10:12;;;;;;;0.50;0.50;;;;;;;;;;1831173;76;26270;-35
2021/12/03 02:12:39;;;;;;;0.40;0.40;;;;;;;;;;1833622;77;26285;-36
2021/12/03 02:15:07;;;;;;;0.40;0.40;;;;;;;;;;1824263;77;26276;-35
2021/12/03 02:17:35;;;;;;;0.50;0.50;;;;;;;;;;1825698;76;26324;-35
2021/12/03 02:20:03;;;;;;;0.42;0.40;;;;;;;;;;1834501;76;26835;-35
2021/12/03 02:22:31;;;;;;;0.40;0.40;;;;;;;;;;1835258;76;26278;-35
2021/12/03 02:24:59;;;;;;;0.40;0.40;;;;;;;;;;1834497;76;26249;-35
2021/12/03 02:27:26;;;;;;;0.25;0.25;;;;;;;;;;1831254;76;26269;-35
2021/12/03 02:29:53;;;;;;;0.42;0.42;;;;;;;;;;1834650;76;26725;-35
2021/12/03 02:32:21;;;;;;;0.50;0.50;;;;;;;;;;1835107;77;26265;-35
2021/12/03 02:34:48;;;;;;;0.50;0.50;;;;;;;;;;1822824;76;26269;-36
2021/12/03 02:37:16;;;;;;;0.50;0.50;;;;;;;;;;1837109;77;26331;-36
2021/12/03 02:39:43;;;;;;;0.50;0.50;;;;;;;;;;1836780;76;26338;-34
2021/12/03 02:42:10;;;;;;;0.40;0.40;;;;;;;;;;1833395;77;26245;-35
2021/12/03 02:44:38;;;;;;;0.42;0.42;;;;;;;;;;1823223;76;26210;-35
2021/12/03 02:47:05;;;;;;;0.50;0.50;;;;;;;;;;1820070;77;26630;-35
2021/12/03 02:49:34;;;;;;;0.45;0.45;;;;;;;;;;1841547;76;26245;-35
2021/12/03 02:52:01;;;;;;;0.50;0.50;;;;;;;;;;1829771;77;26332;-35
2021/12/03 02:54:28;;;;;;;0.60;0.60;;;;;;;;;;1850156;76;26237;-35
2021/12/03 02:56:56;;;;;;;0.40;0.40;;;;;;;;;;1839886;76;26254;-35
2021/12/03 02:59:23;;;;;;;0.40;0.40;;;;;;;;;;1849051;76;26317;-35
2021/12/03 03:01:51;;;;;;;0.40;0.40;;;;;;;;;;1825110;76;26261;-35
2021/12/03 03:04:18;;;;;;;0.20;0.20;;;;;;;;;;1829774;76;26297;-35
2021/12/03 03:06:45;;;;;;;0.50;0.50;;;;;;;;;;1825680;76;26847;-35
2021/12/03 03:09:14;;;;;;;0.37;0.37;;;;;;;;;;1840874;76;26335;-35
2021/12/03 03:11:41;;;;;;;0.30;0.30;;;;;;;;;;1836277;77;26646;-35
2021/12/03 03:14:09;;;;;;;0.47;0.47;;;;;;;;;;1821979;76;26281;-35
2021/12/03 03:16:36;;;;;;;0.42;0.33;;;;;;;;;;1811559;77;26352;-35
2021/12/03 03:19:15;;;;;;;0.50;0.50;;;;;;;;;;1796597;79;26821;-34
2021/12/03 03:21:43;;;;;;;0.42;0.40;;;;;;;;;;1843339;77;26249;-34
2021/12/03 03:24:10;;;;;;;0.30;0.30;;;;;;;;;;1841711;76;26253;-35
2021/12/03 03:26:39;;;;;;;0.33;0.33;;;;;;;;;;1843928;77;26246;-35
2021/12/03 03:29:08;;;;;;;0.30;0.30;;;;;;;;;;1840821;76;26211;-34
2021/12/03 03:31:36;;;;;;;0.30;0.30;;;;;;;;;;1840761;76;26281;-35
2021/12/03 03:34:05;;;;;;;0.40;0.40;;;;;;;;;;1830361;77;26265;-35
2021/12/03 03:36:33;;;;;;;0.50;0.50;;;;;;;;;;1842665;77;26713;-35
2021/12/03 03:39:01;;;;;;;0.40;0.40;;;;;;;;;;1856246;77;26662;-35
2021/12/03 03:41:28;;;;;;;0.40;0.40;;;;;;;;;;1858825;76;26349;-35
2021/12/03 03:43:55;;;;;;;1.35;0.40;;;;;;;;;;1855358;77;26774;-35
2021/12/03 03:46:23;;;;;;;0.50;0.50;;;;;;;;;;1858382;77;27320;-35
2021/12/03 03:48:50;;;;;;;0.50;0.50;;;;;;;;;;1859566;75;26236;-35
2021/12/03 03:51:18;;;;;;;0.40;0.40;;;;;;;;;;1859429;77;26807;-35
2021/12/03 03:53:45;;;;;;;0.40;0.35;;;;;;;;;;1854497;75;26256;-35
2021/12/03 03:56:13;;;;;;;0.40;0.40;;;;;;;;;;1854803;76;26350;-35
2021/12/03 03:58:41;;;;;;;0.45;0.45;;;;;;;;;;1859072;75;26263;-35
2021/12/03 04:01:09;;;;;;;0.50;0.50;;;;;;;;;;1858839;75;26358;-35
2021/12/03 04:03:37;;;;;;;0.40;0.40;;;;;;;;;;1856705;77;26325;-35
2021/12/03 04:06:04;;;;;;;0.30;0.30;;;;;;;;;;1854876;75;26633;-34
2021/12/03 04:08:32;;;;;;;0.40;0.40;;;;;;;;;;1853930;75;26201;-35
2021/12/03 04:11:00;;;;;;;0.40;0.40;;;;;;;;;;1856208;75;26280;-35
2021/12/03 04:13:28;;;;;;;0.40;0.40;;;;;;;;;;1855634;77;26264;-35
2021/12/03 04:15:55;;;;;;;0.47;0.47;;;;;;;;;;1857761;75;26373;-34
2021/12/03 04:18:22;;;;;;;3.02;0.47;;;;;;;;;;1846423;75;26330;-35
2021/12/03 04:20:49;;;;;;;0.40;0.40;;;;;;;;;;1856029;75;26622;-35
2021/12/03 04:23:19;;;;;;;0.50;0.50;;;;;;;;;;1840093;77;26257;-35
2021/12/03 04:25:50;;;;;;;0.40;0.40;;;;;;;;;;1848520;76;26325;-35
2021/12/03 04:28:18;;;;;;;0.30;0.30;;;;;;;;;;1859316;77;26312;-35
2021/12/03 04:30:46;;;;;;;0.90;0.40;;;;;;;;;;1861822;76;27404;-35
2021/12/03 04:33:13;;;;;;;0.35;0.35;;;;;;;;;;1861716;75;26268;-34
2021/12/03 04:35:41;;;;;;;0.40;0.40;;;;;;;;;;1837356;75;26732;-35
2021/12/03 04:38:09;;;;;;;0.40;0.40;;;;;;;;;;1848225;77;26285;-35
2021/12/03 04:40:37;;;;;;;0.40;0.40;;;;;;;;;;1848333;76;26732;-35
2021/12/03 04:43:05;;;;;;;0.40;0.40;;;;;;;;;;1842994;76;26316;-35
2021/12/03 04:45:32;;;;;;;0.45;0.45;;;;;;;;;;1855868;77;26803;-35
2021/12/03 04:48:01;;;;;;;0.40;0.40;;;;;;;;;;1844986;77;26202;-35
2021/12/03 04:50:30;;;;;;;0.60;0.40;;;;;;;;;;1847642;77;26296;-35
2021/12/03 04:52:58;;;;;;;0.40;0.40;;;;;;;;;;1841963;76;26693;-35
2021/12/03 04:55:26;;;;;;;0.30;0.30;;;;;;;;;;1843588;76;26250;-34
2021/12/03 04:57:53;;;;;;;0.35;0.35;;;;;;;;;;1854666;76;26583;-35
2021/12/03 05:00:22;;;;;;;0.40;0.40;;;;;;;;;;1852460;76;26339;-35
2021/12/03 05:02:52;;;;;;;0.20;0.20;;;;;;;;;;1846684;76;26257;-35
2021/12/03 05:05:19;;;;;;;0.30;0.30;;;;;;;;;;1845703;76;26363;-35
2021/12/03 05:07:58;;;;;;;0.40;0.40;;;;;;;;;;1834220;76;26973;-35
2021/12/03 05:10:27;;;;;;;0.40;0.40;;;;;;;;;;1855065;76;26277;-35
2021/12/03 05:12:56;;;;;;;0.45;0.45;;;;;;;;;;1848665;76;26306;-35
2021/12/03 05:15:23;;;;;;;0.35;0.35;;;;;;;;;;1857459;76;26257;-35
2021/12/03 05:17:51;;;;;;;1.85;0.40;;;;;;;;;;1852227;77;27127;-34
2021/12/03 05:20:18;;;;;;;0.30;0.30;;;;;;;;;;1855915;76;26299;-34
2021/12/03 05:22:46;;;;;;;0.33;0.33;;;;;;;;;;1856461;77;26264;-35
2021/12/03 05:25:13;;;;;;;1.10;0.40;;;;;;;;;;1850656;77;27190;-35
2021/12/03 05:27:41;;;;;;;0.30;0.30;;;;;;;;;;1852734;77;26257;-35
2021/12/03 05:30:09;;;;;;;0.40;0.40;;;;;;;;;;1850205;76;26803;-35
2021/12/03 05:32:36;;;;;;;2.62;0.33;;;;;;;;;;1846042;76;26289;-35
2021/12/03 05:35:04;;;;;;;0.70;0.53;;;;;;;;;;1839790;76;26847;-34
2021/12/03 05:37:32;;;;;;;0.40;0.40;;;;;;;;;;1839594;76;26783;-35
2021/12/03 05:39:59;;;;;;;0.72;0.40;;;;;;;;;;1830699;76;26258;-35
2021/12/03 05:42:26;;;;;;;0.40;0.40;;;;;;;;;;1834723;77;26266;-35
2021/12/03 05:44:54;;;;;;;0.50;0.35;;;;;;;;;;1840257;76;26249;-35
2021/12/03 05:47:22;;;;;;;0.30;0.30;;;;;;;;;;1827016;76;26834;-35
2021/12/03 05:49:49;;;;;;;1.27;0.50;;;;;;;;;;1853948;76;26253;-34
2021/12/03 05:52:17;;;;;;;0.45;0.42;;;;;;;;;;1831396;77;27392;-35
2021/12/03 05:54:45;;;;;;;0.82;0.50;;;;;;;;;;1825389;76;26268;-35
2021/12/03 05:57:13;;;;;;;1.85;0.53;;;;;;;;;;1828104;76;26759;-35
2021/12/03 05:59:40;;;;;;;0.50;0.50;;;;;;;;;;1833208;77;26361;-35
2021/12/03 06:02:08;;;;;;;0.50;0.50;;;;;;;;;;1844884;76;26250;-35
2021/12/03 06:04:35;;;;;;;0.72;0.40;;;;;;;;;;1825918;76;26344;-34
2021/12/03 06:07:03;;;;;;;2.45;0.68;;;;;;;;;;1845836;76;26289;-34
2021/12/03 06:09:31;;;;;;;0.75;0.50;;;;;;;;;;1843855;76;26735;-35
2021/12/03 06:12:01;;;;;;;0.95;0.60;;;;;;;;;;1833943;76;26311;-35
2021/12/03 06:14:29;;;;;;;0.60;0.60;;;;;;;;;;1837480;76;26243;-35
2021/12/03 06:16:57;;;;;;;2.20;0.40;;;;;;;;;;1837366;76;26281;-35
2021/12/03 06:19:24;;;;;;;0.50;0.50;;;;;;;;;;1831563;76;26706;-35
2021/12/03 06:21:51;;;;;;;0.78;0.60;;;;;;;;;;1842649;76;26257;-35
2021/12/03 06:24:19;;;;;;;2.42;0.60;;;;;;;;;;1833933;76;26258;-35
2021/12/03 06:26:47;;;;;;;0.40;0.40;;;;;;;;;;1832912;76;26252;-35
2021/12/03 06:29:14;;;;;;;0.57;0.50;;;;;;;;;;1834975;76;27409;-35
2021/12/03 06:31:42;;;;;;;1.42;0.50;;;;;;;;;;1841272;77;26363;-35
2021/12/03 06:34:09;;;;;;;1.42;0.60;;;;;;;;;;1833429;76;26340;-35
2021/12/03 06:36:36;;;;;;;1.20;0.50;;;;;;;;;;1832736;76;26241;-35
2021/12/03 06:39:04;;;;;;;0.65;0.60;;;;;;;;;;1854924;75;26292;-35
2021/12/03 06:41:31;;;;;;;0.78;0.60;;;;;;;;;;1848564;75;26319;-34
2021/12/03 06:43:59;;;;;;;1.42;0.40;;;;;;;;;;1847979;75;26273;-35
2021/12/03 06:46:26;;;;;;;1.55;0.60;;;;;;;;;;1856473;75;26698;-37
2021/12/03 06:48:53;;;;;;;1.57;0.70;;;;;;;;;;1850708;75;26280;-39
2021/12/03 06:51:21;;;;;;;1.35;0.60;;;;;;;;;;1859898;77;26254;-40
2021/12/03 06:54:01;;;;;;;1.85;0.80;;;;;;;;;;1853010;75;26284;-39
2021/12/03 06:56:21;;;;;;;3.83;0.70;;;;;;;;;;1845982;76;26284;-38
2021/12/03 06:58:49;;;;;;;0.80;0.68;;;;;;;;;;1859334;75;26331;-39
2021/12/03 07:01:16;;;;;;;1.05;0.60;;;;;;;;;;1854415;77;26338;-36
2021/12/03 07:03:44;;;;;;;2.77;0.80;;;;;;;;;;1857788;77;26311;-41
2021/12/03 07:06:11;;;;;;;1.75;0.60;;;;;;;;;;1843208;75;26862;-38
2021/12/03 07:08:38;;;;;;;0.85;0.60;;;;;;;;;;1846070;75;26749;-36
2021/12/03 07:11:06;;;;;;;1.80;0.62;;;;;;;;;;1857125;75;26206;-42
2021/12/03 07:13:33;;;;;;;2.85;0.60;;;;;;;;;;1858148;77;26785;-36
2021/12/03 07:16:04;;;;;;;1.70;0.70;;;;;;;;;;1856012;77;26685;-36
2021/12/03 07:18:29;;;;;;;0.70;0.70;;;;;;;;;;1844929;75;29624;-35
2021/12/03 07:20:57;;;;;;;1.20;0.65;;;;;;;;;;1856913;77;26361;-35
2021/12/03 07:23:24;;;;;;;1.37;0.65;;;;;;;;;;1858670;75;25735;-42
2021/12/03 07:25:51;;;;;;;0.60;0.60;;;;;;;;;;1849570;75;26304;-37
2021/12/03 07:28:19;;;;;;;1.65;0.50;;;;;;;;;;1853447;77;26288;-35
2021/12/03 07:30:46;;;;;;;1.50;0.60;;;;;;;;;;1856077;75;26845;-34
2021/12/03 07:33:16;;;;;;;2.52;0.68;;;;;;;;;;1860750;75;26319;-33
2021/12/03 07:35:45;;;;;;;0.93;0.70;;;;;;;;;;1855718;76;26206;-35
2021/12/03 07:38:17;;;;;;;0.90;0.90;;;;;;;;;;1849717;76;26300;-34
2021/12/03 07:40:46;;;;;;;0.82;0.82;;;;;;;;;;1846533;77;26352;-34
2021/12/03 07:43:16;;;;;;;0.70;0.70;;;;;;;;;;1840055;76;26276;-35
2021/12/03 07:45:42;;;;;;;0.65;0.65;;;;;;;;;;1840649;76;26199;-35
2021/12/03 07:48:10;;;;;;;0.70;0.70;;;;;;;;;;1839675;76;26701;-35
2021/12/03 07:50:39;;;;;;;0.53;0.53;;;;;;;;;;1838232;76;26764;-37
2021/12/03 07:53:07;;;;;;;0.70;0.70;;;;;;;;;;1824276;76;28329;-37
2021/12/03 07:55:35;;;;;;;0.70;0.70;;;;;;;;;;1837843;76;26573;-36
2021/12/03 07:58:07;;;;;;;1.35;0.60;;;;;;;;;;1837743;76;26273;-34
2021/12/03 08:00:32;;;;;;;0.70;0.70;;;;;;;;;;1840080;76;26559;-35
2021/12/03 08:03:00;;;;;;;0.60;0.60;;;;;;;;;;1842979;76;26722;-35
2021/12/03 08:05:27;;;;;;;0.70;0.70;;;;;;;;;;1842777;77;26359;-35
2021/12/03 08:07:55;;;;;;;0.60;0.60;;;;;;;;;;1836724;76;28532;-36
2021/12/03 08:10:22;;;;;;;0.70;0.70;;;;;;;;;;1838088;76;26372;-34
2021/12/03 08:12:50;;;;;;;0.65;0.65;;;;;;;;;;1838254;76;26262;-34
2021/12/03 08:15:17;;;;;;;0.50;0.50;;;;;;;;;;1842309;76;26304;-34
2021/12/03 08:17:51;;;;;;;1.12;0.40;;;;;;;;;;1828390;76;26209;-41
2021/12/03 08:20:14;;;;;;;0.70;0.70;;;;;;;;;;1838124;76;26363;-36
2021/12/03 08:22:41;;;;;;;0.60;0.60;;;;;;;;;;1838922;76;26254;-35
2021/12/03 08:25:10;;;;;;;0.72;0.72;;;;;;;;;;1835282;76;26848;-36
2021/12/03 08:27:37;;;;;;;0.60;0.60;;;;;;;;;;1843203;76;26745;-34
2021/12/03 08:30:05;;;;;;;0.53;0.53;;;;;;;;;;1842047;76;26224;-34
2021/12/03 08:32:32;;;;;;;0.80;0.80;;;;;;;;;;1842436;76;26286;-36
2021/12/03 08:35:00;;;;;;;0.55;0.55;;;;;;;;;;1842612;76;26945;-36
2021/12/03 08:37:27;;;;;;;0.60;0.60;;;;;;;;;;1834007;76;26281;-37
2021/12/03 08:39:54;;;;;;;0.70;0.70;;;;;;;;;;1852062;75;26354;-35
2021/12/03 08:42:22;;;;;;;0.55;0.55;;;;;;;;;;1849815;75;26374;-34
2021/12/03 08:44:50;;;;;;;0.60;0.60;;;;;;;;;;1856690;75;26273;-37
2021/12/03 08:47:17;;;;;;;0.70;0.70;;;;;;;;;;1844574;75;26257;-37
2021/12/03 08:49:49;;;;;;;0.60;0.60;;;;;;;;;;1837428;75;28191;-38
2021/12/03 08:54:53;;;;;;;0.50;0.50;;;;;;;;;;1857405;75;26888;-37
2021/12/03 08:57:22;;;;;;;0.60;0.60;;;;;;;;;;1845131;75;26307;-37
2021/12/03 08:59:51;;;;;;;0.70;0.70;;;;;;;;;;1856496;75;26758;-35
2021/12/03 09:02:19;;;;;;;0.70;0.70;;;;;;;;;;1844707;75;38508;-35
2021/12/03 09:04:47;;;;;;;0.60;0.60;;;;;;;;;;1850683;75;26393;-34
2021/12/03 09:07:15;;;;;;;0.60;0.60;;;;;;;;;;1847499;75;26335;-34
2021/12/03 09:09:42;;;;;;;0.60;0.60;;;;;;;;;;1854098;75;26771;-35
2021/12/03 09:12:11;;;;;;;0.60;0.60;;;;;;;;;;1847912;75;26308;-38
2021/12/03 09:14:44;;;;;;;0.80;0.57;;;;;;;;;;1859449;75;26293;-37
2021/12/03 09:22:45;;;;;;;1.55;0.60;;;;;;;;;;1855144;75;26812;-33
2021/12/03 09:25:14;;;;;;;0.65;0.65;;;;;;;;;;1853522;75;27006;-33
2021/12/03 09:27:41;;;;;;;0.60;0.60;;;;;;;;;;1855217;75;26367;-33
2021/12/03 09:30:12;;;;;;;1.05;0.60;;;;;;;;;;1842914;75;28709;-34
2021/12/03 09:32:41;;;;;;;0.70;0.70;;;;;;;;;;1844189;75;28048;-33
2021/12/03 09:35:13;;;;;;;0.80;0.65;;;;;;;;;;1858906;75;26340;-34
2021/12/03 09:37:38;;;;;;;0.60;0.60;;;;;;;;;;1850666;75;26327;-34
2021/12/03 09:40:08;;;;;;;0.65;0.65;;;;;;;;;;1843837;75;27957;-36
2021/12/03 09:42:37;;;;;;;0.60;0.60;;;;;;;;;;1836388;76;26382;-35
2021/12/03 09:45:05;;;;;;;1.27;0.60;;;;;;;;;;1838408;76;26375;-35
2021/12/03 09:47:32;;;;;;;0.68;0.68;;;;;;;;;;1837138;76;26305;-33
2021/12/03 09:50:03;;;;;;;0.50;0.50;;;;;;;;;;1836891;76;26206;-34
2021/12/03 09:55:16;;;;;;;0.65;0.55;;;;;;;;;;1839328;76;26363;-39
2021/12/03 09:58:00;;;;;;;4.22;0.75;;;;;;;;;;1842223;76;26407;-33
2021/12/03 10:11:46;;;;;;;0.60;0.60;;;;;;;;;;1844698;76;26357;-38
2021/12/03 10:14:47;;;;;;;0.60;0.60;;;;;;;;;;1833254;76;26266;-38
2021/12/03 10:16:49;;;;;;;0.62;0.62;;;;;;;;;;1827657;76;26745;-36
2021/12/03 10:19:33;;;;;;;0.80;0.60;;;;;;;;;;1846471;77;26257;-37
2021/12/03 10:22:12;;;;;;;0.70;0.70;;;;;;;;;;1842149;76;26778;-36
2021/12/03 10:30:22;;;;;;;0.60;0.60;;;;;;;;;;1843881;76;26266;-34
2021/12/03 10:36:13;;;;;;;0.45;0.45;;;;;;;;;;1846272;76;26389;-33
2021/12/03 10:40:33;;;;;;;0.68;0.68;;;;;;;;;;1840211;76;26831;-36
2021/12/03 10:43:15;;;;;;;0.60;0.60;;;;;;;;;;1837615;77;26355;-37
2021/12/03 10:45:57;;;;;;;0.50;0.50;;;;;;;;;;1826083;77;26364;-36
2021/12/03 10:48:24;;;;;;;0.50;0.50;;;;;;;;;;1825642;77;26257;-38
2021/12/03 10:50:51;;;;;;;0.50;0.50;;;;;;;;;;1844704;77;26816;-35
2021/12/03 10:53:36;;;;;;;0.60;0.60;;;;;;;;;;1840185;76;26848;-36
2021/12/03 11:04:15;;;;;;;0.60;0.60;;;;;;;;;;1841925;76;26210;-37
2021/12/03 11:34:03;;;;;;;1.30;0.60;;;;;;;;;;1843530;76;26218;-39
2021/12/03 11:50:25;;;;;;;0.60;0.60;;;;;;;;;;1854225;75;28756;-33
2021/12/03 11:52:48;;;;;;;0.60;0.60;;;;;;;;;;1826740;75;26338;-36
2021/12/03 11:58:10;;;;;;;3.00;0.70;;;;;;;;;;1842284;75;28125;-34
2021/12/03 12:19:07;;;;;;;0.50;0.50;;;;;;;;;;1853004;75;26420;-35
2021/12/03 13:08:12;;;;;;;0.70;0.70;;;;;;;;;;1840595;76;26736;-35
2021/12/03 13:12:58;;;;;;;0.70;0.70;;;;;;;;;;1843984;76;26335;-37
2021/12/03 13:18:26;;;;;;;0.53;0.53;;;;;;;;;;1842622;76;26275;-39
2021/12/03 13:20:46;;;;;;;0.55;0.55;;;;;;;;;;1840243;76;26297;-35
2021/12/03 13:31:53;;;;;;;2.50;0.70;;;;;;;;;;1828083;76;28211;-35
2021/12/03 13:45:39;;;;;;;0.70;0.70;;;;;;;;;;1846463;75;26273;-38
2021/12/03 14:00:42;;;;;;;1.98;0.70;;;;;;;;;;1856647;75;26817;-34
2021/12/03 14:41:14;;;;;;;0.80;0.80;;;;;;;;;;1856096;77;26741;-35
2021/12/03 14:44:03;;;;;;;0.70;0.70;;;;;;;;;;1840846;77;26363;-35
2021/12/03 14:46:37;;;;;;;1.72;0.78;;;;;;;;;;1836190;76;26753;-34
2021/12/03 14:51:57;;;;;;;0.72;0.72;;;;;;;;;;1844324;77;26338;-34
2021/12/03 14:54:31;;;;;;;0.75;0.75;;;;;;;;;;1843865;77;27998;-34
2021/12/03 14:57:11;;;;;;;0.70;0.70;;;;;;;;;;1843081;77;26639;-34
2021/12/03 14:59:43;;;;;;;0.65;0.65;;;;;;;;;;1834867;76;26384;-34
2021/12/03 15:07:15;;;;;;;0.80;0.80;;;;;;;;;;1845508;76;26409;-34
2021/12/03 15:09:44;;;;;;;0.80;0.80;;;;;;;;;;1843305;76;26270;-34
2021/12/03 15:18:28;;;;;;;0.80;0.80;;;;;;;;;;1840463;76;26367;-34
2021/12/03 15:23:22;;;;;;;0.60;0.60;;;;;;;;;;1847459;77;26353;-34
2021/12/03 15:25:55;;;;;;;0.75;0.75;;;;;;;;;;1844974;76;26294;-34
2021/12/03 15:28:48;;;;;;;0.90;0.90;;;;;;;;;;1836896;76;26293;-35
2021/12/03 15:30:59;;;;;;;0.85;0.85;;;;;;;;;;1840652;76;26918;-34
2021/12/03 15:36:00;;;;;;;0.80;0.80;;;;;;;;;;1847071;77;26809;-34
2021/12/03 16:08:45;;;;;;;0.60;0.60;;;;;;;;;;1856363;77;26317;-34
2021/12/03 16:48:00;;;;;;;2.47;1.25;;;;;;;;;;1836349;77;26364;-33
2021/12/03 16:52:54;;;;;;;2.37;1.40;;;;;;;;;;1838898;76;26371;-33
2021/12/03 16:55:21;;;;;;;3.80;1.22;;;;;;;;;;1833959;76;26274;-34
2021/12/03 16:57:52;;;;;;;2.45;1.10;;;;;;;;;;1834760;76;26327;-34
2021/12/03 17:02:55;;;;;;;2.10;1.50;;;;;;;;;;1841083;76;26850;-34
2021/12/03 17:56:35;;;;;;;1.32;0.90;;;;;;;;;;1847302;75;25401;-35
2021/12/03 17:59:17;;;;;;;0.90;0.90;;;;;;;;;;1862176;75;26964;-34
2021/12/03 18:01:36;;;;;;;1.12;1.00;;;;;;;;;;1855646;75;26888;-34
2021/12/03 18:04:09;;;;;;;1.02;0.90;;;;;;;;;;1859774;75;26970;-34
2021/12/03 18:47:48;;;;;;;1.27;1.12;;;;;;;;;;1858874;75;26300;-34
2021/12/03 18:58:05;;;;;;;2.92;1.47;;;;;;;;;;1862307;75;26249;-33
2021/12/03 19:00:31;;;;;;;1.42;1.20;;;;;;;;;;1852679;75;26800;-33
2021/12/03 19:03:03;;;;;;;3.20;1.35;;;;;;;;;;1860895;75;26379;-33
2021/12/03 19:10:31;;;;;;;4.20;1.30;;;;;;;;;;1870230;75;26366;-33
2021/12/03 19:13:05;;;;;;;4.35;1.37;;;;;;;;;;1864436;75;26268;-33
2021/12/03 19:15:31;;;;;;;4.67;1.42;;;;;;;;;;1855508;75;26609;-33
2021/12/03 19:18:02;;;;;;;4.08;1.70;;;;;;;;;;1852754;75;27437;-33
2021/12/03 19:20:32;;;;;;;2.05;1.55;;;;;;;;;;1860912;75;26317;-33
2021/12/03 19:22:57;;;;;;;4.62;1.70;;;;;;;;;;1859795;75;26747;-33
2021/12/03 19:25:24;;;;;;;4.60;1.85;;;;;;;;;;1858641;75;26811;-33
2021/12/03 19:27:52;;;;;;;3.05;1.80;;;;;;;;;;1850459;75;26223;-34
2021/12/03 19:30:19;;;;;;;2.95;1.67;;;;;;;;;;1867636;75;26252;-34
2021/12/03 19:32:46;;;;;;;3.42;1.80;;;;;;;;;;1856826;75;26348;-34
2021/12/03 19:35:14;;;;;;;2.83;1.60;;;;;;;;;;1858736;75;26658;-33
2021/12/03 19:37:43;;;;;;;3.65;1.90;;;;;;;;;;1861785;75;26245;-33
2021/12/03 19:40:12;;;;;;;3.55;1.60;;;;;;;;;;1860774;75;26276;-34
2021/12/03 19:42:50;;;;;;;5.53;1.95;;;;;;;;;;1854488;75;26574;-33
2021/12/03 19:45:18;;;;;;;3.55;1.87;;;;;;;;;;1855862;75;26805;-33
2021/12/03 19:47:56;;;;;;;3.65;1.95;;;;;;;;;;1857038;75;26786;-34
2021/12/03 19:50:32;;;;;;;3.20;1.70;;;;;;;;;;1852798;75;26350;-34
2021/12/03 19:53:00;;;;;;;8.05;2.05;;;;;;;;;;1850495;75;26711;-33
2021/12/03 19:55:26;;;;;;;3.17;1.52;;;;;;;;;;1851632;75;26312;-33
2021/12/03 19:57:53;;;;;;;3.08;1.80;;;;;;;;;;1854778;75;26748;-33
2021/12/03 20:00:27;;;;;;;4.37;1.70;;;;;;;;;;1845225;75;26304;-33
2021/12/03 20:02:50;;;;;;;3.52;1.77;;;;;;;;;;1856844;76;26276;-33
2021/12/03 20:05:17;;;;;;;2.27;1.50;;;;;;;;;;1850930;75;26301;-33
2021/12/03 20:07:45;;;;;;;4.45;1.82;;;;;;;;;;1857360;75;26297;-33
2021/12/03 20:10:19;;;;;;;4.90;1.90;;;;;;;;;;1861397;75;26303;-33
2021/12/03 20:12:41;;;;;;;1.85;1.57;;;;;;;;;;1857846;75;26354;-33
2021/12/03 20:15:14;;;;;;;4.42;1.82;;;;;;;;;;1863370;75;26731;-33
2021/12/03 20:17:47;;;;;;;4.22;1.85;;;;;;;;;;1856635;76;26482;-33
2021/12/03 20:20:12;;;;;;;2.90;1.60;;;;;;;;;;1850292;75;26316;-33
2021/12/03 20:27:54;;;;;;;2.15;1.50;;;;;;;;;;1863758;75;26256;-33
2021/12/03 20:30:35;;;;;;;4.50;1.50;;;;;;;;;;1856598;75;26804;-33
2021/12/03 20:38:13;;;;;;;3.05;1.80;;;;;;;;;;1859668;75;27425;-34
2021/12/03 20:40:41;;;;;;;5.15;1.70;;;;;;;;;;1859191;77;26690;-35
2021/12/03 20:46:11;;;;;;;2.85;1.30;;;;;;;;;;1856267;75;26687;-34
2021/12/03 21:10:32;;;;;;;3.35;1.92;;;;;;;;;;1849235;75;26277;-34
2021/12/03 21:13:07;;;;;;;2.67;1.20;;;;;;;;;;1852955;76;26399;-34
2021/12/03 21:15:57;;;;;;;10.55;1.65;;;;;;;;;;1859341;75;26329;-34
2021/12/03 21:20:33;;;;;;;2.20;1.37;;;;;;;;;;1864362;75;26407;-34
2021/12/03 21:23:07;;;;;;;1.37;1.20;;;;;;;;;;1844019;75;26284;-34
2021/12/03 21:25:33;;;;;;;1.95;1.30;;;;;;;;;;1853153;75;26265;-35
2021/12/03 21:28:34;;;;;;;2.40;1.40;;;;;;;;;;1845257;75;26689;-34
2021/12/03 21:30:38;;;;;;;2.65;1.32;;;;;;;;;;1827048;77;26347;-34
2021/12/03 21:41:19;;;;;;;2.80;1.22;;;;;;;;;;1859392;75;26261;-34
2021/12/03 21:43:29;;;;;;;1.95;1.30;;;;;;;;;;1846322;75;26689;-34
2021/12/03 21:45:57;;;;;;;2.25;1.25;;;;;;;;;;1855468;77;27233;-34
2021/12/03 21:48:25;;;;;;;1.62;1.30;;;;;;;;;;1846451;77;26282;-34
2021/12/03 21:50:52;;;;;;;1.20;1.20;;;;;;;;;;1856232;77;26340;-34
2021/12/03 21:53:19;;;;;;;1.25;1.10;;;;;;;;;;1847902;75;26269;-34
2021/12/03 21:55:49;;;;;;;1.50;1.20;;;;;;;;;;1850712;75;26299;-34
2021/12/03 21:58:16;;;;;;;3.55;1.20;;;;;;;;;;1850506;77;26288;-34
2021/12/03 22:00:44;;;;;;;2.77;1.35;;;;;;;;;;1858212;75;26335;-34
2021/12/03 22:03:11;;;;;;;2.25;1.12;;;;;;;;;;1856303;75;26716;-34
2021/12/03 22:05:39;;;;;;;1.40;1.20;;;;;;;;;;1858163;77;26976;-34
2021/12/03 22:08:11;;;;;;;1.10;1.10;;;;;;;;;;1860055;75;26551;-34
2021/12/03 22:10:35;;;;;;;0.90;0.90;;;;;;;;;;1855946;75;26257;-34
2021/12/03 22:13:03;;;;;;;0.93;0.93;;;;;;;;;;1859599;75;26955;-34
2021/12/03 22:15:30;;;;;;;2.02;1.10;;;;;;;;;;1843188;75;26260;-34
2021/12/03 22:17:57;;;;;;;3.55;1.10;;;;;;;;;;1859508;75;26252;-34
2021/12/03 22:20:25;;;;;;;1.02;1.02;;;;;;;;;;1858875;77;26928;-34
2021/12/03 22:22:52;;;;;;;2.02;1.42;;;;;;;;;;1858338;75;26261;-34
2021/12/03 22:25:20;;;;;;;1.17;1.07;;;;;;;;;;1850519;75;26316;-34
2021/12/03 22:27:47;;;;;;;1.35;1.22;;;;;;;;;;1856522;75;26708;-34
2021/12/03 22:30:15;;;;;;;3.65;1.10;;;;;;;;;;1862037;75;26257;-34
2021/12/03 22:32:42;;;;;;;1.20;1.10;;;;;;;;;;1851453;75;26327;-34
2021/12/03 22:35:09;;;;;;;1.32;1.10;;;;;;;;;;1848384;76;26269;-34
2021/12/03 22:37:37;;;;;;;1.77;1.10;;;;;;;;;;1850057;76;26249;-34
2021/12/03 22:40:05;;;;;;;0.98;0.98;;;;;;;;;;1861689;76;26780;-34